sensor_id;sensor_type;location;lat;lon;timestamp;pressure;altitude;pressure_sealevel;temperature;humidity
34979;BME280;21185;50.978;13.720;2022-09-09T00:09:27;97902.19;;;17.49;71.23
34979;BME280;21185;50.978;13.720;2022-09-09T00:14:41;97903.78;;;17.51;71.27
34979;BME280;21185;50.978;13.720;2022-09-09T00:20:10;97895.34;;;17.48;70.98
34979;BME280;21185;50.978;13.720;2022-09-09T00:25:46;97896.34;;;17.47;70.91
34979;BME280;21185;50.978;13.720;2022-09-09T00:30:53;97896.78;;;17.44;71.00
34979;BME280;21185;50.978;13.720;2022-09-09T00:35:57;97886.50;;;17.43;71.13
34979;BME280;21185;50.978;13.720;2022-09-09T00:41:11;97893.56;;;17.42;70.93
34979;BME280;21185;50.978;13.720;2022-09-09T01:02:27;97906.16;;;17.34;70.88
34979;BME280;21185;50.978;13.720;2022-09-09T01:07:32;97904.53;;;17.33;70.96
34979;BME280;21185;50.978;13.720;2022-09-09T01:12:40;97899.50;;;17.31;70.57
34979;BME280;21185;50.978;13.720;2022-09-09T01:18:10;97897.69;;;17.32;70.62
34979;BME280;21185;50.978;13.720;2022-09-09T01:34:29;97888.66;;;17.28;70.52
34979;BME280;21185;50.978;13.720;2022-09-09T01:39:33;97889.03;;;17.31;70.57
34979;BME280;21185;50.978;13.720;2022-09-09T01:44:41;97885.00;;;17.29;70.71
34979;BME280;21185;50.978;13.720;2022-09-09T01:49:43;97887.84;;;17.27;70.52
34979;BME280;21185;50.978;13.720;2022-09-09T01:54:55;97880.19;;;17.26;70.39
34979;BME280;21185;50.978;13.720;2022-09-09T02:00:19;97872.53;;;17.24;70.32
34979;BME280;21185;50.978;13.720;2022-09-09T02:05:38;97875.38;;;17.23;70.26
34979;BME280;21185;50.978;13.720;2022-09-09T02:10:58;97879.81;;;17.22;70.51
34979;BME280;21185;50.978;13.720;2022-09-09T02:16:39;97879.81;;;17.22;70.49
34979;BME280;21185;50.978;13.720;2022-09-09T02:21:44;97885.06;;;17.22;70.23
34979;BME280;21185;50.978;13.720;2022-09-09T02:26:50;97878.81;;;17.23;70.52
34979;BME280;21185;50.978;13.720;2022-09-09T02:31:58;97887.47;;;17.24;70.51
34979;BME280;21185;50.978;13.720;2022-09-09T02:37:07;97883.03;;;17.24;70.40
34979;BME280;21185;50.978;13.720;2022-09-09T02:42:13;97884.06;;;17.23;70.48
34979;BME280;21185;50.978;13.720;2022-09-09T02:53:05;97889.72;;;17.20;70.22
34979;BME280;21185;50.978;13.720;2022-09-09T02:58:14;97890.72;;;17.19;70.45
34979;BME280;21185;50.978;13.720;2022-09-09T03:03:29;97889.13;;;17.18;70.06
34979;BME280;21185;50.978;13.720;2022-09-09T03:08:34;97896.41;;;17.16;70.04
34979;BME280;21185;50.978;13.720;2022-09-09T03:13:36;97896.41;;;17.16;70.19
34979;BME280;21185;50.978;13.720;2022-09-09T03:18:40;97897.41;;;17.15;70.27
34979;BME280;21185;50.978;13.720;2022-09-09T03:23:41;97900.25;;;17.13;69.97
34979;BME280;21185;50.978;13.720;2022-09-09T03:28:44;97893.63;;;17.11;70.24
34979;BME280;21185;50.978;13.720;2022-09-09T03:33:49;97892.00;;;17.10;69.97
34979;BME280;21185;50.978;13.720;2022-09-09T03:38:54;97886.78;;;17.10;69.93
34979;BME280;21185;50.978;13.720;2022-09-09T03:43:58;97888.59;;;17.09;69.83
34979;BME280;21185;50.978;13.720;2022-09-09T03:49:04;97892.00;;;17.10;69.82
34979;BME280;21185;50.978;13.720;2022-09-09T03:54:07;97893.03;;;17.09;69.86
34979;BME280;21185;50.978;13.720;2022-09-09T03:59:12;97895.66;;;17.09;70.07
34979;BME280;21185;50.978;13.720;2022-09-09T04:04:17;97879.13;;;17.08;69.80
34979;BME280;21185;50.978;13.720;2022-09-09T04:09:19;97889.59;;;17.08;69.94
34979;BME280;21185;50.978;13.720;2022-09-09T04:14:23;97889.59;;;17.08;69.83
34979;BME280;21185;50.978;13.720;2022-09-09T04:19:25;97890.41;;;17.09;69.84
34979;BME280;21185;50.978;13.720;2022-09-09T04:24:28;97892.00;;;17.10;69.59
34979;BME280;21185;50.978;13.720;2022-09-09T04:29:32;97901.69;;;17.09;69.58
34979;BME280;21185;50.978;13.720;2022-09-09T04:34:36;97893.03;;;17.09;69.80
34979;BME280;21185;50.978;13.720;2022-09-09T04:39:38;97901.69;;;17.09;69.75
34979;BME280;21185;50.978;13.720;2022-09-09T04:44:40;97905.13;;;17.10;69.94
34979;BME280;21185;50.978;13.720;2022-09-09T04:49:42;97904.09;;;17.11;69.73
34979;BME280;21185;50.978;13.720;2022-09-09T04:54:45;97901.47;;;17.11;69.87
34979;BME280;21185;50.978;13.720;2022-09-09T04:59:47;97903.91;;;17.12;70.00
34979;BME280;21185;50.978;13.720;2022-09-09T05:04:49;97903.69;;;17.14;69.97
34979;BME280;21185;50.978;13.720;2022-09-09T05:09:52;97909.72;;;17.14;69.95
34979;BME280;21185;50.978;13.720;2022-09-09T05:14:53;97907.31;;;17.13;70.26
34979;BME280;21185;50.978;13.720;2022-09-09T05:19:56;97915.97;;;17.13;70.24
34979;BME280;21185;50.978;13.720;2022-09-09T05:24:59;97915.19;;;17.13;70.42
34979;BME280;21185;50.978;13.720;2022-09-09T05:30:03;97913.78;;;17.10;70.38
34979;BME280;21185;50.978;13.720;2022-09-09T05:35:06;97926.47;;;17.13;70.45
34979;BME280;21185;50.978;13.720;2022-09-09T05:40:09;97940.75;;;17.17;70.70
34979;BME280;21185;50.978;13.720;2022-09-09T05:45:14;97938.09;;;17.24;70.90
34979;BME280;21185;50.978;13.720;2022-09-09T05:50:16;97942.69;;;17.29;70.96
34979;BME280;21185;50.978;13.720;2022-09-09T05:55:18;97948.69;;;17.36;71.43
34979;BME280;21185;50.978;13.720;2022-09-09T06:00:20;97955.72;;;17.42;71.24
34979;BME280;21185;50.978;13.720;2022-09-09T06:05:23;97946.56;;;17.51;71.67
34979;BME280;21185;50.978;13.720;2022-09-09T06:10:26;97940.84;;;17.61;71.74
34979;BME280;21185;50.978;13.720;2022-09-09T06:15:28;97946.44;;;17.71;71.54
34979;BME280;21185;50.978;13.720;2022-09-09T06:20:32;97947.53;;;17.82;71.31
34979;BME280;21185;50.978;13.720;2022-09-09T06:25:34;97941.81;;;17.91;71.22
34979;BME280;21185;50.978;13.720;2022-09-09T06:30:36;97944.59;;;17.96;71.14
34979;BME280;21185;50.978;13.720;2022-09-09T06:35:39;97947.78;;;17.98;71.05
34979;BME280;21185;50.978;13.720;2022-09-09T06:40:41;97953.63;;;18.00;71.16
34979;BME280;21185;50.978;13.720;2022-09-09T06:45:43;97948.16;;;18.02;70.74
34979;BME280;21185;50.978;13.720;2022-09-09T06:50:47;97951.75;;;18.07;71.09
34979;BME280;21185;50.978;13.720;2022-09-09T06:55:49;97947.22;;;18.15;70.88
34979;BME280;21185;50.978;13.720;2022-09-09T07:00:51;97952.78;;;18.25;70.95
34979;BME280;21185;50.978;13.720;2022-09-09T07:05:54;97947.72;;;18.41;70.82
34979;BME280;21185;50.978;13.720;2022-09-09T07:11:07;97948.81;;;18.52;70.84
34979;BME280;21185;50.978;13.720;2022-09-09T07:16:17;97945.09;;;18.60;70.43
34979;BME280;21185;50.978;13.720;2022-09-09T07:21:19;97944.38;;;18.71;70.67
34979;BME280;21185;50.978;13.720;2022-09-09T07:26:26;97938.94;;;18.84;70.70
34979;BME280;21185;50.978;13.720;2022-09-09T07:31:31;97938.97;;;18.96;70.39
34979;BME280;21185;50.978;13.720;2022-09-09T07:36:37;97940.97;;;19.12;70.49
34979;BME280;21185;50.978;13.720;2022-09-09T07:41:44;97947.06;;;19.24;70.19
34979;BME280;21185;50.978;13.720;2022-09-09T07:46:48;97943.41;;;19.25;70.65
34979;BME280;21185;50.978;13.720;2022-09-09T07:51:54;97945.16;;;19.43;70.20
34979;BME280;21185;50.978;13.720;2022-09-09T07:56:56;97952.44;;;19.71;69.96
34979;BME280;21185;50.978;13.720;2022-09-09T08:02:03;97964.00;;;19.82;69.80
34979;BME280;21185;50.978;13.720;2022-09-09T08:07:08;97965.25;;;19.91;70.16
34979;BME280;21185;50.978;13.720;2022-09-09T08:12:18;97967.19;;;19.84;70.38
34979;BME280;21185;50.978;13.720;2022-09-09T08:17:20;97965.59;;;19.71;70.52
34979;BME280;21185;50.978;13.720;2022-09-09T08:22:22;97974.41;;;19.65;70.57
34979;BME280;21185;50.978;13.720;2022-09-09T08:27:26;97980.91;;;19.62;70.44
34979;BME280;21185;50.978;13.720;2022-09-09T08:32:29;97978.28;;;19.62;70.18
34979;BME280;21185;50.978;13.720;2022-09-09T08:37:30;97978.06;;;19.64;70.06
34979;BME280;21185;50.978;13.720;2022-09-09T08:42:49;97984.81;;;19.71;69.39
34979;BME280;21185;50.978;13.720;2022-09-09T08:53:27;97988.38;;;19.89;69.61
34979;BME280;21185;50.978;13.720;2022-09-09T08:58:34;97987.34;;;19.90;69.66
34979;BME280;21185;50.978;13.720;2022-09-09T09:10:00;97995.03;;;19.91;69.74
34979;BME280;21185;50.978;13.720;2022-09-09T09:15:28;98006.69;;;19.72;70.23
34979;BME280;21185;50.978;13.720;2022-09-09T09:20:38;98015.53;;;19.48;70.34
34979;BME280;21185;50.978;13.720;2022-09-09T09:25:45;98009.84;;;19.21;70.70
34979;BME280;21185;50.978;13.720;2022-09-09T09:31:01;98009.66;;;19.04;71.35
34979;BME280;21185;50.978;13.720;2022-09-09T09:36:07;97996.97;;;19.01;71.36
34979;BME280;21185;50.978;13.720;2022-09-09T09:41:11;98002.56;;;19.04;72.03
34979;BME280;21185;50.978;13.720;2022-09-09T09:46:20;97996.13;;;19.19;71.96
34979;BME280;21185;50.978;13.720;2022-09-09T09:51:29;98002.91;;;19.38;72.05
34979;BME280;21185;50.978;13.720;2022-09-09T09:56:34;97996.84;;;19.67;72.47
34979;BME280;21185;50.978;13.720;2022-09-09T10:01:39;97990.78;;;20.02;72.32
34979;BME280;21185;50.978;13.720;2022-09-09T10:06:44;98000.06;;;20.16;72.25
34979;BME280;21185;50.978;13.720;2022-09-09T10:12:01;97992.03;;;20.34;72.07
34979;BME280;21185;50.978;13.720;2022-09-09T10:43:20;97954.16;;;20.92;72.05
34979;BME280;21185;50.978;13.720;2022-09-09T10:54:21;97948.53;;;20.89;72.03
34979;BME280;21185;50.978;13.720;2022-09-09T10:59:31;97952.94;;;20.83;72.17
34979;BME280;21185;50.978;13.720;2022-09-09T11:04:45;97936.50;;;20.93;72.00
34979;BME280;21185;50.978;13.720;2022-09-09T11:09:54;97943.97;;;20.84;72.11
34979;BME280;21185;50.978;13.720;2022-09-09T11:20:22;97970.94;;;20.46;72.64
34979;BME280;21185;50.978;13.720;2022-09-09T11:25:35;97948.03;;;20.35;72.82
34979;BME280;21185;50.978;13.720;2022-09-09T11:31:21;97931.41;;;20.34;72.70
34979;BME280;21185;50.978;13.720;2022-09-09T11:41:48;97931.09;;;20.31;73.04
34979;BME280;21185;50.978;13.720;2022-09-09T11:46:51;97925.81;;;20.31;73.90
34979;BME280;21185;50.978;13.720;2022-09-09T11:51:54;97930.47;;;20.52;74.19
34979;BME280;21185;50.978;13.720;2022-09-09T11:56:56;97933.59;;;20.78;74.37
34979;BME280;21185;50.978;13.720;2022-09-09T12:02:16;97924.44;;;20.97;74.41
34979;BME280;21185;50.978;13.720;2022-09-09T12:12:37;97901.88;;;20.89;74.82
34979;BME280;21185;50.978;13.720;2022-09-09T12:17:49;97899.00;;;20.91;74.66
34979;BME280;21185;50.978;13.720;2022-09-09T12:23:11;97901.72;;;20.96;75.16
34979;BME280;21185;50.978;13.720;2022-09-09T12:28:19;97893.91;;;21.01;74.99
34979;BME280;21185;50.978;13.720;2022-09-09T12:33:22;97894.06;;;21.11;74.90
34979;BME280;21185;50.978;13.720;2022-09-09T12:38:32;97886.31;;;21.21;74.46
34979;BME280;21185;50.978;13.720;2022-09-09T12:43:35;97901.72;;;21.24;74.38
34979;BME280;21185;50.978;13.720;2022-09-09T12:48:41;97892.63;;;21.20;74.51
34979;BME280;21185;50.978;13.720;2022-09-09T12:53:47;97893.13;;;21.17;74.56
34979;BME280;21185;50.978;13.720;2022-09-09T12:58:51;97886.28;;;21.33;74.33
34979;BME280;21185;50.978;13.720;2022-09-09T13:03:54;97868.84;;;21.49;73.92
34979;BME280;21185;50.978;13.720;2022-09-09T13:08:59;97857.78;;;21.52;73.10
34979;BME280;21185;50.978;13.720;2022-09-09T13:14:02;97855.81;;;21.42;72.26
34979;BME280;21185;50.978;13.720;2022-09-09T13:19:09;97860.03;;;21.43;71.14
34979;BME280;21185;50.978;13.720;2022-09-09T13:24:33;97852.59;;;21.57;70.22
34979;BME280;21185;50.978;13.720;2022-09-09T13:29:36;97848.50;;;21.66;70.25
34979;BME280;21185;50.978;13.720;2022-09-09T13:34:38;97843.50;;;21.70;69.27
34979;BME280;21185;50.978;13.720;2022-09-09T13:39:51;97842.28;;;21.77;68.47
34979;BME280;21185;50.978;13.720;2022-09-09T13:44:58;97856.31;;;21.78;67.77
34979;BME280;21185;50.978;13.720;2022-09-09T13:50:29;97856.00;;;21.74;66.87
34979;BME280;21185;50.978;13.720;2022-09-09T13:55:32;97860.16;;;21.70;67.13
34979;BME280;21185;50.978;13.720;2022-09-09T14:00:34;97853.28;;;21.69;67.13
34979;BME280;21185;50.978;13.720;2022-09-09T14:05:37;97857.13;;;21.61;67.00
34979;BME280;21185;50.978;13.720;2022-09-09T14:10:39;97860.50;;;21.57;66.90
34979;BME280;21185;50.978;13.720;2022-09-09T14:15:41;97853.56;;;21.51;66.83
34979;BME280;21185;50.978;13.720;2022-09-09T14:20:43;97844.53;;;21.47;66.85
34979;BME280;21185;50.978;13.720;2022-09-09T14:25:44;97849.31;;;21.50;66.89
34979;BME280;21185;50.978;13.720;2022-09-09T14:30:46;97835.38;;;21.54;66.82
34979;BME280;21185;50.978;13.720;2022-09-09T14:36:04;97836.00;;;21.61;66.69
34979;BME280;21185;50.978;13.720;2022-09-09T14:41:07;97831.78;;;21.60;67.09
34979;BME280;21185;50.978;13.720;2022-09-09T14:46:12;97833.63;;;21.60;66.78
34979;BME280;21185;50.978;13.720;2022-09-09T14:51:18;97836.25;;;21.60;66.40
34979;BME280;21185;50.978;13.720;2022-09-09T14:56:23;97836.66;;;21.52;66.44
34979;BME280;21185;50.978;13.720;2022-09-09T15:01:26;97841.81;;;21.42;66.88
34979;BME280;21185;50.978;13.720;2022-09-09T15:06:31;97841.41;;;21.33;66.84
34979;BME280;21185;50.978;13.720;2022-09-09T15:11:36;97840.84;;;21.31;67.20
34979;BME280;21185;50.978;13.720;2022-09-09T15:16:41;97830.53;;;21.29;67.05
34979;BME280;21185;50.978;13.720;2022-09-09T15:21:43;97832.63;;;21.27;66.87
34979;BME280;21185;50.978;13.720;2022-09-09T15:26:46;97847.41;;;21.28;67.10
34979;BME280;21185;50.978;13.720;2022-09-09T15:31:48;97853.97;;;21.26;67.77
34979;BME280;21185;50.978;13.720;2022-09-09T15:36:49;97853.38;;;21.07;67.91
34979;BME280;21185;50.978;13.720;2022-09-09T15:41:51;97862.16;;;20.96;68.46
34979;BME280;21185;50.978;13.720;2022-09-09T15:46:53;97861.03;;;20.92;68.76
34979;BME280;21185;50.978;13.720;2022-09-09T15:51:58;97838.44;;;20.96;68.76
34979;BME280;21185;50.978;13.720;2022-09-09T15:57:02;97841.63;;;20.98;69.09
34979;BME280;21185;50.978;13.720;2022-09-09T16:02:05;97846.34;;;20.96;69.30
34979;BME280;21185;50.978;13.720;2022-09-09T16:07:09;97836.84;;;20.95;69.48
34979;BME280;21185;50.978;13.720;2022-09-09T16:12:11;97840.75;;;20.92;69.68
34979;BME280;21185;50.978;13.720;2022-09-09T16:17:14;97837.78;;;20.89;69.97
34979;BME280;21185;50.978;13.720;2022-09-09T16:22:16;97844.00;;;20.83;70.21
34979;BME280;21185;50.978;13.720;2022-09-09T16:27:19;97849.22;;;20.78;70.47
34979;BME280;21185;50.978;13.720;2022-09-09T16:32:21;97852.81;;;20.72;70.76
34979;BME280;21185;50.978;13.720;2022-09-09T16:37:23;97851.22;;;20.71;70.98
34979;BME280;21185;50.978;13.720;2022-09-09T16:42:25;97851.22;;;20.71;70.78
34979;BME280;21185;50.978;13.720;2022-09-09T16:47:27;97851.69;;;20.67;70.87
34979;BME280;21185;50.978;13.720;2022-09-09T16:52:29;97870.22;;;20.73;70.89
34979;BME280;21185;50.978;13.720;2022-09-09T16:57:31;97877.09;;;20.74;71.12
34979;BME280;21185;50.978;13.720;2022-09-09T17:02:33;97874.22;;;20.75;70.88
34979;BME280;21185;50.978;13.720;2022-09-09T17:07:35;97870.22;;;20.73;71.03
34979;BME280;21185;50.978;13.720;2022-09-09T17:12:37;97875.41;;;20.67;70.46
34979;BME280;21185;50.978;13.720;2022-09-09T17:17:42;97881.63;;;20.61;70.20
34979;BME280;21185;50.978;13.720;2022-09-09T17:22:46;97886.25;;;20.54;69.99
34979;BME280;21185;50.978;13.720;2022-09-09T17:27:48;97878.47;;;20.48;69.42
34979;BME280;21185;50.978;13.720;2022-09-09T17:32:50;97891.22;;;20.39;69.17
34979;BME280;21185;50.978;13.720;2022-09-09T17:37:53;97892.38;;;20.31;68.69
34979;BME280;21185;50.978;13.720;2022-09-09T17:42:56;97895.94;;;20.25;68.45
34979;BME280;21185;50.978;13.720;2022-09-09T17:47:58;97896.06;;;20.19;67.87
34979;BME280;21185;50.978;13.720;2022-09-09T17:53:00;97921.50;;;20.13;67.29
34979;BME280;21185;50.978;13.720;2022-09-09T17:58:03;97923.22;;;20.08;66.97
34979;BME280;21185;50.978;13.720;2022-09-09T18:03:06;97927.59;;;20.02;66.31
34979;BME280;21185;50.978;13.720;2022-09-09T18:08:09;97933.31;;;19.99;66.19
34979;BME280;21185;50.978;13.720;2022-09-09T18:13:11;97935.84;;;19.94;65.72
34979;BME280;21185;50.978;13.720;2022-09-09T18:18:12;97924.97;;;19.90;65.27
34979;BME280;21185;50.978;13.720;2022-09-09T18:23:14;97927.47;;;19.85;65.00
34979;BME280;21185;50.978;13.720;2022-09-09T18:28:16;97928.41;;;19.79;65.44
34979;BME280;21185;50.978;13.720;2022-09-09T18:33:22;97936.19;;;19.74;65.63
34979;BME280;21185;50.978;13.720;2022-09-09T18:38:24;97934.69;;;19.66;65.45
34979;BME280;21185;50.978;13.720;2022-09-09T18:43:26;97944.75;;;19.58;65.74
34979;BME280;21185;50.978;13.720;2022-09-09T18:48:28;97942.19;;;19.51;66.01
34979;BME280;21185;50.978;13.720;2022-09-09T18:53:31;97939.91;;;19.43;66.30
34979;BME280;21185;50.978;13.720;2022-09-09T18:58:34;97946.50;;;19.34;66.31
34979;BME280;21185;50.978;13.720;2022-09-09T19:03:37;97955.31;;;19.28;66.35
34979;BME280;21185;50.978;13.720;2022-09-09T19:08:40;97949.69;;;19.24;66.19
34979;BME280;21185;50.978;13.720;2022-09-09T19:13:44;97945.34;;;19.18;66.52
34979;BME280;21185;50.978;13.720;2022-09-09T19:18:51;97951.28;;;19.14;66.84
34979;BME280;21185;50.978;13.720;2022-09-09T19:24:00;97953.53;;;19.10;66.72
34979;BME280;21185;50.978;13.720;2022-09-09T19:29:02;97951.59;;;19.05;66.75
34979;BME280;21185;50.978;13.720;2022-09-09T19:34:04;97956.03;;;19.05;67.23
34979;BME280;21185;50.978;13.720;2022-09-09T19:39:06;97959.69;;;19.04;67.25
34979;BME280;21185;50.978;13.720;2022-09-09T19:44:11;97953.88;;;19.02;67.31
34979;BME280;21185;50.978;13.720;2022-09-09T19:49:14;97956.50;;;19.02;67.42
34979;BME280;21185;50.978;13.720;2022-09-09T19:54:16;97956.50;;;19.02;67.59
34979;BME280;21185;50.978;13.720;2022-09-09T19:59:18;97953.28;;;19.00;67.71
34979;BME280;21185;50.978;13.720;2022-09-09T20:04:20;97961.03;;;18.95;67.74
34979;BME280;21185;50.978;13.720;2022-09-09T20:09:22;97965.72;;;18.93;67.38
34979;BME280;21185;50.978;13.720;2022-09-09T20:14:26;97973.81;;;18.91;67.71
34979;BME280;21185;50.978;13.720;2022-09-09T20:19:28;97982.38;;;18.87;67.89
34979;BME280;21185;50.978;13.720;2022-09-09T20:24:30;97985.22;;;18.85;68.17
34979;BME280;21185;50.978;13.720;2022-09-09T20:29:32;97982.81;;;18.84;68.24
34979;BME280;21185;50.978;13.720;2022-09-09T20:34:34;97982.81;;;18.84;67.99
34979;BME280;21185;50.978;13.720;2022-09-09T20:39:35;97994.94;;;18.85;68.17
34979;BME280;21185;50.978;13.720;2022-09-09T20:44:37;97992.31;;;18.85;68.21
34979;BME280;21185;50.978;13.720;2022-09-09T20:49:39;97991.06;;;18.87;67.92
34979;BME280;21185;50.978;13.720;2022-09-09T20:54:41;97990.03;;;18.88;68.18
34979;BME280;21185;50.978;13.720;2022-09-09T20:59:43;98002.38;;;18.88;68.24
34979;BME280;21185;50.978;13.720;2022-09-09T21:04:48;98006.84;;;18.87;68.03
34979;BME280;21185;50.978;13.720;2022-09-09T21:09:50;98001.00;;;18.85;68.27
34979;BME280;21185;50.978;13.720;2022-09-09T21:14:52;98001.44;;;18.82;68.22
34979;BME280;21185;50.978;13.720;2022-09-09T21:19:54;97997.22;;;18.81;68.11
34979;BME280;21185;50.978;13.720;2022-09-09T21:24:58;98001.88;;;18.79;68.30
34979;BME280;21185;50.978;13.720;2022-09-09T21:29:59;98002.09;;;18.77;68.43
34979;BME280;21185;50.978;13.720;2022-09-09T21:35:04;98011.03;;;18.76;68.28
34979;BME280;21185;50.978;13.720;2022-09-09T21:40:08;98008.25;;;18.71;68.67
34979;BME280;21185;50.978;13.720;2022-09-09T21:45:10;98010.06;;;18.71;68.79
34979;BME280;21185;50.978;13.720;2022-09-09T21:50:12;97997.16;;;18.69;68.63
34979;BME280;21185;50.978;13.720;2022-09-09T21:55:15;97992.56;;;18.65;68.78
34979;BME280;21185;50.978;13.720;2022-09-09T22:00:17;97996.84;;;18.59;68.55
34979;BME280;21185;50.978;13.720;2022-09-09T22:05:18;97998.75;;;18.52;68.82
34979;BME280;21185;50.978;13.720;2022-09-09T22:10:21;98003.84;;;18.47;68.97
34979;BME280;21185;50.978;13.720;2022-09-09T22:15:23;97994.22;;;18.41;68.70
34979;BME280;21185;50.978;13.720;2022-09-09T22:20:25;97986.41;;;18.34;68.65
34979;BME280;21185;50.978;13.720;2022-09-09T22:25:31;97985.00;;;18.32;68.72
34979;BME280;21185;50.978;13.720;2022-09-09T22:30:35;97982.25;;;18.27;68.41
34979;BME280;21185;50.978;13.720;2022-09-09T22:35:42;97980.63;;;18.26;67.97
34979;BME280;21185;50.978;13.720;2022-09-09T22:40:43;97977.00;;;18.27;67.50
34979;BME280;21185;50.978;13.720;2022-09-09T22:45:46;97972.53;;;18.27;67.18
34979;BME280;21185;50.978;13.720;2022-09-09T22:50:48;97961.22;;;18.27;66.68
34979;BME280;21185;50.978;13.720;2022-09-09T22:55:57;97962.84;;;18.28;66.51
34979;BME280;21185;50.978;13.720;2022-09-09T23:01:00;97962.03;;;18.27;66.10
34979;BME280;21185;50.978;13.720;2022-09-09T23:06:10;97945.47;;;18.27;65.99
34979;BME280;21185;50.978;13.720;2022-09-09T23:11:12;97946.50;;;18.26;65.82
34979;BME280;21185;50.978;13.720;2022-09-09T23:16:17;97944.09;;;18.24;65.58
34979;BME280;21185;50.978;13.720;2022-09-09T23:21:20;97947.94;;;18.22;65.23
34979;BME280;21185;50.978;13.720;2022-09-09T23:26:24;97943.94;;;18.19;64.87
34979;BME280;21185;50.978;13.720;2022-09-09T23:31:30;97951.66;;;18.14;64.98
34979;BME280;21185;50.978;13.720;2022-09-09T23:36:33;97958.97;;;18.12;64.87
34979;BME280;21185;50.978;13.720;2022-09-09T23:41:36;97950.94;;;18.07;64.67
34979;BME280;21185;50.978;13.720;2022-09-09T23:46:38;97957.22;;;18.06;64.61
34979;BME280;21185;50.978;13.720;2022-09-09T23:51:40;97954.00;;;18.04;64.85
34979;BME280;21185;50.978;13.720;2022-09-09T23:56:42;97955.81;;;18.03;64.63
